sensor_id;sensor_type;location;lat;lon;timestamp;temperature;humidity
15483;DHT22;7843;50.330;7.312;2023-03-01T00:01:10;-1.20;90.10
15483;DHT22;7843;50.330;7.312;2023-03-01T00:03:37;-1.30;90.20
15483;DHT22;7843;50.330;7.312;2023-03-01T00:06:05;-1.30;90.10
15483;DHT22;7843;50.330;7.312;2023-03-01T00:08:32;-1.40;90.30
15483;DHT22;7843;50.330;7.312;2023-03-01T00:11:12;-1.40;90.70
15483;DHT22;7843;50.330;7.312;2023-03-01T00:13:39;-1.50;90.80
15483;DHT22;7843;50.330;7.312;2023-03-01T00:16:09;-1.60;91.40
15483;DHT22;7843;50.330;7.312;2023-03-01T00:18:36;-1.60;91.60
15483;DHT22;7843;50.330;7.312;2023-03-01T00:21:03;-1.70;91.90
15483;DHT22;7843;50.330;7.312;2023-03-01T00:23:29;-1.80;92.00
15483;DHT22;7843;50.330;7.312;2023-03-01T00:25:56;-1.90;92.20
15483;DHT22;7843;50.330;7.312;2023-03-01T00:28:23;-1.90;92.40
15483;DHT22;7843;50.330;7.312;2023-03-01T00:30:49;-2.10;92.80
15483;DHT22;7843;50.330;7.312;2023-03-01T00:33:16;-2.10;93.00
15483;DHT22;7843;50.330;7.312;2023-03-01T00:35:43;-2.00;93.20
15483;DHT22;7843;50.330;7.312;2023-03-01T00:38:10;-2.00;93.20
15483;DHT22;7843;50.330;7.312;2023-03-01T00:40:37;-2.00;93.40
15483;DHT22;7843;50.330;7.312;2023-03-01T00:43:04;-2.20;93.80
15483;DHT22;7843;50.330;7.312;2023-03-01T00:45:30;-2.30;93.80
15483;DHT22;7843;50.330;7.312;2023-03-01T00:47:57;-2.40;94.00
15483;DHT22;7843;50.330;7.312;2023-03-01T00:50:24;-2.40;94.10
15483;DHT22;7843;50.330;7.312;2023-03-01T00:52:55;-2.40;94.50
15483;DHT22;7843;50.330;7.312;2023-03-01T00:55:22;-2.30;94.80
15483;DHT22;7843;50.330;7.312;2023-03-01T00:57:49;-2.40;94.70
15483;DHT22;7843;50.330;7.312;2023-03-01T01:00:16;-2.30;94.70
15483;DHT22;7843;50.330;7.312;2023-03-01T01:02:43;-2.30;94.80
15483;DHT22;7843;50.330;7.312;2023-03-01T01:05:10;-2.30;94.80
15483;DHT22;7843;50.330;7.312;2023-03-01T01:07:37;-2.30;94.90
15483;DHT22;7843;50.330;7.312;2023-03-01T01:10:05;-2.20;94.60
15483;DHT22;7843;50.330;7.312;2023-03-01T01:12:32;-2.00;94.10
15483;DHT22;7843;50.330;7.312;2023-03-01T01:14:59;-2.10;94.30
15483;DHT22;7843;50.330;7.312;2023-03-01T01:17:25;-2.20;94.20
15483;DHT22;7843;50.330;7.312;2023-03-01T01:19:52;-2.30;94.20
15483;DHT22;7843;50.330;7.312;2023-03-01T01:22:19;-2.30;94.50
15483;DHT22;7843;50.330;7.312;2023-03-01T01:24:45;-2.20;94.30
15483;DHT22;7843;50.330;7.312;2023-03-01T01:27:12;-2.10;94.00
15483;DHT22;7843;50.330;7.312;2023-03-01T01:29:38;-2.00;93.90
15483;DHT22;7843;50.330;7.312;2023-03-01T01:32:05;-2.00;93.90
15483;DHT22;7843;50.330;7.312;2023-03-01T01:34:32;-1.90;93.60
15483;DHT22;7843;50.330;7.312;2023-03-01T01:36:58;-1.90;93.40
15483;DHT22;7843;50.330;7.312;2023-03-01T01:39:29;-1.80;93.30
15483;DHT22;7843;50.330;7.312;2023-03-01T01:41:55;-1.70;92.70
15483;DHT22;7843;50.330;7.312;2023-03-01T01:44:26;-1.80;92.60
15483;DHT22;7843;50.330;7.312;2023-03-01T01:47:05;-1.80;92.70
15483;DHT22;7843;50.330;7.312;2023-03-01T01:52:19;-1.90;92.80
15483;DHT22;7843;50.330;7.312;2023-03-01T01:55:17;-1.90;92.90
15483;DHT22;7843;50.330;7.312;2023-03-01T01:57:56;-1.90;93.00
15483;DHT22;7843;50.330;7.312;2023-03-01T02:00:27;-1.90;93.20
15483;DHT22;7843;50.330;7.312;2023-03-01T02:03:07;-1.90;93.20
15483;DHT22;7843;50.330;7.312;2023-03-01T02:05:54;-2.00;93.30
15483;DHT22;7843;50.330;7.312;2023-03-01T02:08:25;-2.10;93.40
15483;DHT22;7843;50.330;7.312;2023-03-01T02:10:54;-2.20;93.80
15483;DHT22;7843;50.330;7.312;2023-03-01T02:13:22;-2.30;94.00
15483;DHT22;7843;50.330;7.312;2023-03-01T02:15:49;-2.30;94.10
15483;DHT22;7843;50.330;7.312;2023-03-01T02:18:18;-2.30;94.20
15483;DHT22;7843;50.330;7.312;2023-03-01T02:23:41;-2.20;94.30
15483;DHT22;7843;50.330;7.312;2023-03-01T02:26:33;-2.10;94.10
15483;DHT22;7843;50.330;7.312;2023-03-01T02:29:01;-2.10;94.10
15483;DHT22;7843;50.330;7.312;2023-03-01T02:31:28;-2.10;94.10
15483;DHT22;7843;50.330;7.312;2023-03-01T02:34:15;-2.20;94.40
15483;DHT22;7843;50.330;7.312;2023-03-01T02:36:59;-2.30;94.50
15483;DHT22;7843;50.330;7.312;2023-03-01T02:39:45;-2.40;94.80
15483;DHT22;7843;50.330;7.312;2023-03-01T02:42:22;-2.50;95.10
15483;DHT22;7843;50.330;7.312;2023-03-01T02:44:52;-2.60;95.40
15483;DHT22;7843;50.330;7.312;2023-03-01T02:47:20;-2.60;95.70
15483;DHT22;7843;50.330;7.312;2023-03-01T02:49:46;-2.70;96.00
15483;DHT22;7843;50.330;7.312;2023-03-01T02:52:17;-2.60;96.00
15483;DHT22;7843;50.330;7.312;2023-03-01T02:57:23;-2.80;96.30
15483;DHT22;7843;50.330;7.312;2023-03-01T02:59:52;-2.80;96.40
15483;DHT22;7843;50.330;7.312;2023-03-01T03:02:22;-2.80;96.30
15483;DHT22;7843;50.330;7.312;2023-03-01T03:05:07;-2.90;96.30
15483;DHT22;7843;50.330;7.312;2023-03-01T03:07:36;-3.00;96.50
15483;DHT22;7843;50.330;7.312;2023-03-01T03:10:06;-3.00;96.70
15483;DHT22;7843;50.330;7.312;2023-03-01T03:12:33;-3.10;96.90
15483;DHT22;7843;50.330;7.312;2023-03-01T03:15:00;-3.10;97.10
15483;DHT22;7843;50.330;7.312;2023-03-01T03:17:26;-3.10;97.10
15483;DHT22;7843;50.330;7.312;2023-03-01T03:19:53;-3.20;97.20
15483;DHT22;7843;50.330;7.312;2023-03-01T03:22:20;-3.20;97.40
15483;DHT22;7843;50.330;7.312;2023-03-01T03:24:46;-3.20;97.40
15483;DHT22;7843;50.330;7.312;2023-03-01T03:27:13;-3.20;97.30
15483;DHT22;7843;50.330;7.312;2023-03-01T03:29:40;-3.20;97.20
15483;DHT22;7843;50.330;7.312;2023-03-01T03:32:06;-3.10;97.20
15483;DHT22;7843;50.330;7.312;2023-03-01T03:34:33;-3.10;97.00
15483;DHT22;7843;50.330;7.312;2023-03-01T03:37:00;-3.00;96.90
15483;DHT22;7843;50.330;7.312;2023-03-01T03:39:28;-3.00;96.90
15483;DHT22;7843;50.330;7.312;2023-03-01T03:41:55;-2.90;96.80
15483;DHT22;7843;50.330;7.312;2023-03-01T03:44:22;-2.80;96.60
15483;DHT22;7843;50.330;7.312;2023-03-01T03:46:48;-2.80;96.50
15483;DHT22;7843;50.330;7.312;2023-03-01T03:49:15;-2.70;96.30
15483;DHT22;7843;50.330;7.312;2023-03-01T03:51:41;-2.70;96.20
15483;DHT22;7843;50.330;7.312;2023-03-01T03:54:08;-2.80;96.30
15483;DHT22;7843;50.330;7.312;2023-03-01T03:56:35;-2.90;96.50
15483;DHT22;7843;50.330;7.312;2023-03-01T03:59:02;-2.80;96.60
15483;DHT22;7843;50.330;7.312;2023-03-01T04:01:29;-2.70;96.60
15483;DHT22;7843;50.330;7.312;2023-03-01T04:03:56;-2.90;96.30
15483;DHT22;7843;50.330;7.312;2023-03-01T04:06:22;-3.00;96.30
15483;DHT22;7843;50.330;7.312;2023-03-01T04:08:49;-3.20;96.60
15483;DHT22;7843;50.330;7.312;2023-03-01T04:11:17;-3.20;97.00
15483;DHT22;7843;50.330;7.312;2023-03-01T04:13:57;-3.20;97.40
15483;DHT22;7843;50.330;7.312;2023-03-01T04:16:24;-3.30;97.70
15483;DHT22;7843;50.330;7.312;2023-03-01T04:18:51;-3.40;97.80
15483;DHT22;7843;50.330;7.312;2023-03-01T04:21:22;-3.50;97.90
15483;DHT22;7843;50.330;7.312;2023-03-01T04:23:49;-3.50;98.00
15483;DHT22;7843;50.330;7.312;2023-03-01T04:26:19;-3.60;98.10
15483;DHT22;7843;50.330;7.312;2023-03-01T04:28:46;-3.60;98.20
15483;DHT22;7843;50.330;7.312;2023-03-01T04:31:17;-3.70;98.30
15483;DHT22;7843;50.330;7.312;2023-03-01T04:36:19;-3.70;98.60
15483;DHT22;7843;50.330;7.312;2023-03-01T04:38:46;-3.70;98.50
15483;DHT22;7843;50.330;7.312;2023-03-01T04:41:16;-3.70;98.70
15483;DHT22;7843;50.330;7.312;2023-03-01T04:43:43;-3.60;98.90
15483;DHT22;7843;50.330;7.312;2023-03-01T04:46:12;-3.60;99.00
15483;DHT22;7843;50.330;7.312;2023-03-01T04:48:42;-3.60;98.90
15483;DHT22;7843;50.330;7.312;2023-03-01T04:51:10;-3.70;98.80
15483;DHT22;7843;50.330;7.312;2023-03-01T04:53:41;-3.70;98.90
15483;DHT22;7843;50.330;7.312;2023-03-01T04:56:09;-3.60;99.00
15483;DHT22;7843;50.330;7.312;2023-03-01T04:58:36;-3.60;99.00
15483;DHT22;7843;50.330;7.312;2023-03-01T05:01:11;-3.70;99.10
15483;DHT22;7843;50.330;7.312;2023-03-01T05:03:51;-3.70;99.10
15483;DHT22;7843;50.330;7.312;2023-03-01T05:06:19;-3.80;99.10
15483;DHT22;7843;50.330;7.312;2023-03-01T05:08:46;-3.80;99.20
15483;DHT22;7843;50.330;7.312;2023-03-01T05:11:13;-3.80;99.30
15483;DHT22;7843;50.330;7.312;2023-03-01T05:13:40;-3.80;99.30
15483;DHT22;7843;50.330;7.312;2023-03-01T05:16:07;-3.80;99.20
15483;DHT22;7843;50.330;7.312;2023-03-01T05:18:37;-3.90;99.30
15483;DHT22;7843;50.330;7.312;2023-03-01T05:21:09;-4.00;99.30
15483;DHT22;7843;50.330;7.312;2023-03-01T05:23:36;-4.00;99.30
15483;DHT22;7843;50.330;7.312;2023-03-01T05:26:04;-4.00;99.50
15483;DHT22;7843;50.330;7.312;2023-03-01T05:28:35;-4.00;99.60
15483;DHT22;7843;50.330;7.312;2023-03-01T05:31:02;-3.90;99.50
15483;DHT22;7843;50.330;7.312;2023-03-01T05:33:28;-3.80;99.40
15483;DHT22;7843;50.330;7.312;2023-03-01T05:35:59;-3.70;99.40
15483;DHT22;7843;50.330;7.312;2023-03-01T05:38:26;-3.60;99.30
15483;DHT22;7843;50.330;7.312;2023-03-01T05:40:53;-3.60;99.10
15483;DHT22;7843;50.330;7.312;2023-03-01T05:43:20;-3.60;99.00
15483;DHT22;7843;50.330;7.312;2023-03-01T05:45:46;-3.60;98.90
15483;DHT22;7843;50.330;7.312;2023-03-01T05:48:13;-3.70;98.80
15483;DHT22;7843;50.330;7.312;2023-03-01T05:50:42;-3.80;99.00
15483;DHT22;7843;50.330;7.312;2023-03-01T05:55:39;-3.80;98.90
15483;DHT22;7843;50.330;7.312;2023-03-01T05:58:12;-3.70;98.90
15483;DHT22;7843;50.330;7.312;2023-03-01T06:00:40;-3.70;98.80
15483;DHT22;7843;50.330;7.312;2023-03-01T06:03:10;-3.70;98.90
15483;DHT22;7843;50.330;7.312;2023-03-01T06:05:37;-3.70;98.80
15483;DHT22;7843;50.330;7.312;2023-03-01T06:08:04;-3.80;98.70
15483;DHT22;7843;50.330;7.312;2023-03-01T06:10:31;-3.90;98.80
15483;DHT22;7843;50.330;7.312;2023-03-01T06:12:58;-3.90;98.90
15483;DHT22;7843;50.330;7.312;2023-03-01T06:15:25;-3.90;99.00
15483;DHT22;7843;50.330;7.312;2023-03-01T06:17:54;-3.80;99.20
15483;DHT22;7843;50.330;7.312;2023-03-01T06:20:26;-3.60;99.10
15483;DHT22;7843;50.330;7.312;2023-03-01T06:22:52;-3.50;98.80
15483;DHT22;7843;50.330;7.312;2023-03-01T06:25:21;-3.60;98.60
15483;DHT22;7843;50.330;7.312;2023-03-01T06:27:48;-3.80;98.50
15483;DHT22;7843;50.330;7.312;2023-03-01T06:30:17;-3.90;98.90
15483;DHT22;7843;50.330;7.312;2023-03-01T06:32:44;-3.90;99.10
15483;DHT22;7843;50.330;7.312;2023-03-01T06:35:12;-3.90;99.20
15483;DHT22;7843;50.330;7.312;2023-03-01T06:37:40;-3.90;99.20
15483;DHT22;7843;50.330;7.312;2023-03-01T06:40:08;-4.00;99.00
15483;DHT22;7843;50.330;7.312;2023-03-01T06:42:35;-4.10;99.00
15483;DHT22;7843;50.330;7.312;2023-03-01T06:45:03;-4.20;99.10
15483;DHT22;7843;50.330;7.312;2023-03-01T06:47:30;-4.10;99.30
15483;DHT22;7843;50.330;7.312;2023-03-01T06:49:57;-4.10;99.50
15483;DHT22;7843;50.330;7.312;2023-03-01T06:52:24;-4.10;99.70
15483;DHT22;7843;50.330;7.312;2023-03-01T06:54:51;-4.10;99.90
15483;DHT22;7843;50.330;7.312;2023-03-01T06:57:18;-4.20;99.90
15483;DHT22;7843;50.330;7.312;2023-03-01T06:59:44;-4.10;99.90
15483;DHT22;7843;50.330;7.312;2023-03-01T07:02:12;-4.20;99.90
15483;DHT22;7843;50.330;7.312;2023-03-01T07:04:39;-4.20;99.90
15483;DHT22;7843;50.330;7.312;2023-03-01T07:07:06;-4.20;99.90
15483;DHT22;7843;50.330;7.312;2023-03-01T07:09:33;-4.10;99.90
15483;DHT22;7843;50.330;7.312;2023-03-01T07:12:00;-4.10;99.80
15483;DHT22;7843;50.330;7.312;2023-03-01T07:14:26;-4.10;99.90
15483;DHT22;7843;50.330;7.312;2023-03-01T07:16:54;-4.00;99.90
15483;DHT22;7843;50.330;7.312;2023-03-01T07:19:21;-4.00;99.90
15483;DHT22;7843;50.330;7.312;2023-03-01T07:21:48;-3.90;99.90
15483;DHT22;7843;50.330;7.312;2023-03-01T07:24:15;-3.70;99.90
15483;DHT22;7843;50.330;7.312;2023-03-01T07:26:41;-3.70;99.90
15483;DHT22;7843;50.330;7.312;2023-03-01T07:29:10;-3.50;99.90
15483;DHT22;7843;50.330;7.312;2023-03-01T07:31:36;-3.30;99.70
15483;DHT22;7843;50.330;7.312;2023-03-01T07:34:03;-3.30;99.50
15483;DHT22;7843;50.330;7.312;2023-03-01T07:36:30;-3.30;99.50
15483;DHT22;7843;50.330;7.312;2023-03-01T07:38:57;-3.10;99.10
15483;DHT22;7843;50.330;7.312;2023-03-01T07:41:24;-3.00;98.60
15483;DHT22;7843;50.330;7.312;2023-03-01T07:43:51;-2.90;98.30
15483;DHT22;7843;50.330;7.312;2023-03-01T07:46:17;-2.80;98.10
15483;DHT22;7843;50.330;7.312;2023-03-01T07:48:45;-2.70;97.80
15483;DHT22;7843;50.330;7.312;2023-03-01T07:51:13;-2.70;97.70
15483;DHT22;7843;50.330;7.312;2023-03-01T07:53:39;-2.60;97.50
15483;DHT22;7843;50.330;7.312;2023-03-01T07:56:08;-2.60;97.50
15483;DHT22;7843;50.330;7.312;2023-03-01T07:58:37;-2.70;97.70
15483;DHT22;7843;50.330;7.312;2023-03-01T08:01:05;-2.70;98.00
15483;DHT22;7843;50.330;7.312;2023-03-01T08:03:34;-2.70;98.10
15483;DHT22;7843;50.330;7.312;2023-03-01T08:06:02;-2.70;98.30
15483;DHT22;7843;50.330;7.312;2023-03-01T08:08:29;-2.60;98.30
15483;DHT22;7843;50.330;7.312;2023-03-01T08:10:57;-2.50;98.20
15483;DHT22;7843;50.330;7.312;2023-03-01T08:13:24;-2.30;98.10
15483;DHT22;7843;50.330;7.312;2023-03-01T08:15:51;-2.20;97.70
15483;DHT22;7843;50.330;7.312;2023-03-01T08:18:19;-2.00;97.50
15483;DHT22;7843;50.330;7.312;2023-03-01T08:20:47;-1.80;97.30
15483;DHT22;7843;50.330;7.312;2023-03-01T08:23:13;-1.70;97.20
15483;DHT22;7843;50.330;7.312;2023-03-01T08:25:40;-1.50;97.10
15483;DHT22;7843;50.330;7.312;2023-03-01T08:28:07;-1.30;96.80
15483;DHT22;7843;50.330;7.312;2023-03-01T08:30:34;-1.20;96.50
15483;DHT22;7843;50.330;7.312;2023-03-01T08:33:00;-1.00;95.90
15483;DHT22;7843;50.330;7.312;2023-03-01T08:35:27;-0.80;95.60
15483;DHT22;7843;50.330;7.312;2023-03-01T08:37:54;-0.70;94.90
15483;DHT22;7843;50.330;7.312;2023-03-01T08:40:20;-0.60;94.40
15483;DHT22;7843;50.330;7.312;2023-03-01T08:42:47;-0.50;94.30
15483;DHT22;7843;50.330;7.312;2023-03-01T08:45:14;-0.50;93.60
15483;DHT22;7843;50.330;7.312;2023-03-01T08:47:44;-0.40;93.70
15483;DHT22;7843;50.330;7.312;2023-03-01T08:50:11;-0.20;93.40
15483;DHT22;7843;50.330;7.312;2023-03-01T08:52:38;-0.10;92.30
15483;DHT22;7843;50.330;7.312;2023-03-01T08:55:05;0.00;91.50
15483;DHT22;7843;50.330;7.312;2023-03-01T08:57:32;0.20;92.30
15483;DHT22;7843;50.330;7.312;2023-03-01T08:59:59;0.30;91.20
15483;DHT22;7843;50.330;7.312;2023-03-01T09:02:25;0.30;90.90
15483;DHT22;7843;50.330;7.312;2023-03-01T09:04:52;0.30;90.90
15483;DHT22;7843;50.330;7.312;2023-03-01T09:07:18;0.40;91.00
15483;DHT22;7843;50.330;7.312;2023-03-01T09:09:45;0.40;90.90
15483;DHT22;7843;50.330;7.312;2023-03-01T09:12:12;0.30;90.30
15483;DHT22;7843;50.330;7.312;2023-03-01T09:14:39;0.40;90.90
15483;DHT22;7843;50.330;7.312;2023-03-01T09:17:07;0.50;90.80
15483;DHT22;7843;50.330;7.312;2023-03-01T09:19:34;0.50;91.00
15483;DHT22;7843;50.330;7.312;2023-03-01T09:22:02;0.50;91.50
15483;DHT22;7843;50.330;7.312;2023-03-01T09:24:29;0.60;91.10
15483;DHT22;7843;50.330;7.312;2023-03-01T09:26:56;0.70;91.00
15483;DHT22;7843;50.330;7.312;2023-03-01T09:29:23;0.80;90.50
15483;DHT22;7843;50.330;7.312;2023-03-01T09:31:50;0.80;90.40
15483;DHT22;7843;50.330;7.312;2023-03-01T09:34:17;0.90;89.70
15483;DHT22;7843;50.330;7.312;2023-03-01T09:36:50;1.00;88.80
15483;DHT22;7843;50.330;7.312;2023-03-01T09:39:18;1.10;89.10
15483;DHT22;7843;50.330;7.312;2023-03-01T09:41:54;1.20;89.00
15483;DHT22;7843;50.330;7.312;2023-03-01T09:47:20;1.20;88.80
15483;DHT22;7843;50.330;7.312;2023-03-01T09:50:15;1.30;88.80
15483;DHT22;7843;50.330;7.312;2023-03-01T09:52:54;1.30;89.10
15483;DHT22;7843;50.330;7.312;2023-03-01T10:04:11;1.50;88.40
15483;DHT22;7843;50.330;7.312;2023-03-01T10:06:44;1.60;88.10
15483;DHT22;7843;50.330;7.312;2023-03-01T10:09:16;1.70;87.90
15483;DHT22;7843;50.330;7.312;2023-03-01T10:11:51;1.70;87.80
15483;DHT22;7843;50.330;7.312;2023-03-01T10:17:33;1.80;87.40
15483;DHT22;7843;50.330;7.312;2023-03-01T10:20:15;1.90;87.50
15483;DHT22;7843;50.330;7.312;2023-03-01T10:22:43;2.00;86.70
15483;DHT22;7843;50.330;7.312;2023-03-01T10:25:14;2.10;86.60
15483;DHT22;7843;50.330;7.312;2023-03-01T10:27:51;2.20;86.20
15483;DHT22;7843;50.330;7.312;2023-03-01T10:30:38;2.20;85.90
15483;DHT22;7843;50.330;7.312;2023-03-01T10:33:16;2.30;86.20
15483;DHT22;7843;50.330;7.312;2023-03-01T10:35:43;2.40;86.20
15483;DHT22;7843;50.330;7.312;2023-03-01T10:38:14;2.50;85.90
15483;DHT22;7843;50.330;7.312;2023-03-01T10:40:56;2.60;85.00
15483;DHT22;7843;50.330;7.312;2023-03-01T10:46:29;2.70;85.00
15483;DHT22;7843;50.330;7.312;2023-03-01T10:49:22;2.80;84.40
15483;DHT22;7843;50.330;7.312;2023-03-01T10:51:51;2.90;84.20
15483;DHT22;7843;50.330;7.312;2023-03-01T10:54:30;3.00;84.30
15483;DHT22;7843;50.330;7.312;2023-03-01T10:57:00;3.00;84.20
15483;DHT22;7843;50.330;7.312;2023-03-01T10:59:36;3.10;84.00
15483;DHT22;7843;50.330;7.312;2023-03-01T11:02:36;3.20;83.60
15483;DHT22;7843;50.330;7.312;2023-03-01T11:07:53;3.30;83.00
15483;DHT22;7843;50.330;7.312;2023-03-01T11:10:28;3.40;83.10
15483;DHT22;7843;50.330;7.312;2023-03-01T11:13:16;3.50;83.20
15483;DHT22;7843;50.330;7.312;2023-03-01T11:15:58;3.50;82.10
15483;DHT22;7843;50.330;7.312;2023-03-01T11:18:26;3.50;82.10
15483;DHT22;7843;50.330;7.312;2023-03-01T11:21:11;3.60;82.40
15483;DHT22;7843;50.330;7.312;2023-03-01T11:23:39;3.70;82.30
15483;DHT22;7843;50.330;7.312;2023-03-01T11:26:09;3.80;82.00
15483;DHT22;7843;50.330;7.312;2023-03-01T11:28:40;4.00;82.60
15483;DHT22;7843;50.330;7.312;2023-03-01T11:31:10;4.10;81.70
15483;DHT22;7843;50.330;7.312;2023-03-01T11:33:48;4.20;81.20
15483;DHT22;7843;50.330;7.312;2023-03-01T11:36:39;4.30;81.20
15483;DHT22;7843;50.330;7.312;2023-03-01T11:39:20;4.40;80.50
15483;DHT22;7843;50.330;7.312;2023-03-01T11:42:05;4.50;80.40
15483;DHT22;7843;50.330;7.312;2023-03-01T11:44:46;4.60;80.20
15483;DHT22;7843;50.330;7.312;2023-03-01T11:47:42;4.70;79.60
15483;DHT22;7843;50.330;7.312;2023-03-01T11:56:28;5.10;78.30
15483;DHT22;7843;50.330;7.312;2023-03-01T11:59:03;5.20;78.00
15483;DHT22;7843;50.330;7.312;2023-03-01T12:01:58;5.20;77.70
15483;DHT22;7843;50.330;7.312;2023-03-01T12:10:26;5.40;77.00
15483;DHT22;7843;50.330;7.312;2023-03-01T12:23:59;5.90;75.50
15483;DHT22;7843;50.330;7.312;2023-03-01T12:29:18;6.10;75.40
15483;DHT22;7843;50.330;7.312;2023-03-01T12:38:21;6.20;74.80
15483;DHT22;7843;50.330;7.312;2023-03-01T12:47:07;6.50;74.20
15483;DHT22;7843;50.330;7.312;2023-03-01T12:49:51;6.60;73.30
15483;DHT22;7843;50.330;7.312;2023-03-01T12:55:14;7.00;73.30
15483;DHT22;7843;50.330;7.312;2023-03-01T13:00:46;8.50;69.70
15483;DHT22;7843;50.330;7.312;2023-03-01T13:06:35;11.10;62.50
15483;DHT22;7843;50.330;7.312;2023-03-01T13:11:44;13.20;58.00
15483;DHT22;7843;50.330;7.312;2023-03-01T13:16:47;14.50;55.30
15483;DHT22;7843;50.330;7.312;2023-03-01T13:21:45;15.40;53.40
15483;DHT22;7843;50.330;7.312;2023-03-01T13:29:47;16.10;50.40
15483;DHT22;7843;50.330;7.312;2023-03-01T13:35:02;16.20;50.00
15483;DHT22;7843;50.330;7.312;2023-03-01T13:37:36;16.10;50.00
15483;DHT22;7843;50.330;7.312;2023-03-01T13:42:53;16.30;49.20
15483;DHT22;7843;50.330;7.312;2023-03-01T13:45:39;16.80;48.70
15483;DHT22;7843;50.330;7.312;2023-03-01T13:48:25;17.00;48.00
15483;DHT22;7843;50.330;7.312;2023-03-01T13:51:02;17.20;47.90
15483;DHT22;7843;50.330;7.312;2023-03-01T13:53:33;17.40;47.30
15483;DHT22;7843;50.330;7.312;2023-03-01T13:56:06;17.50;46.80
15483;DHT22;7843;50.330;7.312;2023-03-01T13:58:51;17.40;47.40
15483;DHT22;7843;50.330;7.312;2023-03-01T14:01:28;17.70;47.70
15483;DHT22;7843;50.330;7.312;2023-03-01T14:03:56;17.60;46.80
15483;DHT22;7843;50.330;7.312;2023-03-01T14:06:28;17.50;47.00
15483;DHT22;7843;50.330;7.312;2023-03-01T14:19:33;18.10;46.30
15483;DHT22;7843;50.330;7.312;2023-03-01T14:27:19;17.60;47.10
15483;DHT22;7843;50.330;7.312;2023-03-01T14:30:04;17.60;47.60
15483;DHT22;7843;50.330;7.312;2023-03-01T14:32:36;17.80;46.90
15483;DHT22;7843;50.330;7.312;2023-03-01T14:35:18;17.70;46.30
15483;DHT22;7843;50.330;7.312;2023-03-01T14:37:45;17.80;45.70
15483;DHT22;7843;50.330;7.312;2023-03-01T14:40:22;17.70;45.80
15483;DHT22;7843;50.330;7.312;2023-03-01T14:42:48;17.30;46.00
15483;DHT22;7843;50.330;7.312;2023-03-01T14:45:15;17.30;46.30
15483;DHT22;7843;50.330;7.312;2023-03-01T14:47:44;17.30;46.50
15483;DHT22;7843;50.330;7.312;2023-03-01T14:50:30;16.90;47.90
15483;DHT22;7843;50.330;7.312;2023-03-01T14:53:00;16.60;47.80
15483;DHT22;7843;50.330;7.312;2023-03-01T14:55:42;16.60;47.90
15483;DHT22;7843;50.330;7.312;2023-03-01T14:58:13;16.10;48.50
15483;DHT22;7843;50.330;7.312;2023-03-01T15:00:48;15.30;49.20
15483;DHT22;7843;50.330;7.312;2023-03-01T15:03:33;14.00;50.60
15483;DHT22;7843;50.330;7.312;2023-03-01T15:06:01;13.20;51.40
15483;DHT22;7843;50.330;7.312;2023-03-01T15:08:29;12.60;52.20
15483;DHT22;7843;50.330;7.312;2023-03-01T15:11:05;12.60;54.00
15483;DHT22;7843;50.330;7.312;2023-03-01T15:13:42;12.30;53.50
15483;DHT22;7843;50.330;7.312;2023-03-01T15:16:16;12.30;53.90
15483;DHT22;7843;50.330;7.312;2023-03-01T15:18:51;11.90;54.20
15483;DHT22;7843;50.330;7.312;2023-03-01T15:21:24;11.50;55.70
15483;DHT22;7843;50.330;7.312;2023-03-01T15:23:58;11.20;55.90
15483;DHT22;7843;50.330;7.312;2023-03-01T15:26:39;10.80;57.10
15483;DHT22;7843;50.330;7.312;2023-03-01T15:29:16;10.30;57.10
15483;DHT22;7843;50.330;7.312;2023-03-01T15:31:57;9.80;58.40
15483;DHT22;7843;50.330;7.312;2023-03-01T15:34:30;9.40;58.70
15483;DHT22;7843;50.330;7.312;2023-03-01T15:37:01;9.10;60.60
15483;DHT22;7843;50.330;7.312;2023-03-01T15:39:42;8.80;60.30
15483;DHT22;7843;50.330;7.312;2023-03-01T15:45:08;8.20;61.20
15483;DHT22;7843;50.330;7.312;2023-03-01T15:47:36;8.00;60.50
15483;DHT22;7843;50.330;7.312;2023-03-01T15:50:11;7.80;62.00
15483;DHT22;7843;50.330;7.312;2023-03-01T15:52:41;7.60;62.80
15483;DHT22;7843;50.330;7.312;2023-03-01T15:55:21;7.50;64.00
15483;DHT22;7843;50.330;7.312;2023-03-01T15:57:49;7.50;64.00
15483;DHT22;7843;50.330;7.312;2023-03-01T16:00:17;7.40;64.70
15483;DHT22;7843;50.330;7.312;2023-03-01T16:02:44;7.20;64.90
15483;DHT22;7843;50.330;7.312;2023-03-01T16:05:19;7.20;65.20
15483;DHT22;7843;50.330;7.312;2023-03-01T16:07:46;7.10;65.40
15483;DHT22;7843;50.330;7.312;2023-03-01T16:10:12;6.90;66.10
15483;DHT22;7843;50.330;7.312;2023-03-01T16:12:39;6.90;66.70
15483;DHT22;7843;50.330;7.312;2023-03-01T16:15:31;6.80;66.30
15483;DHT22;7843;50.330;7.312;2023-03-01T16:17:58;6.60;66.60
15483;DHT22;7843;50.330;7.312;2023-03-01T16:20:26;6.50;66.60
15483;DHT22;7843;50.330;7.312;2023-03-01T16:23:00;6.50;66.70
15483;DHT22;7843;50.330;7.312;2023-03-01T16:25:28;6.40;66.20
15483;DHT22;7843;50.330;7.312;2023-03-01T16:27:55;6.30;66.40
15483;DHT22;7843;50.330;7.312;2023-03-01T16:30:22;6.20;66.50
15483;DHT22;7843;50.330;7.312;2023-03-01T16:32:50;6.10;66.70
15483;DHT22;7843;50.330;7.312;2023-03-01T16:35:19;6.00;67.40
15483;DHT22;7843;50.330;7.312;2023-03-01T16:37:47;5.90;68.40
15483;DHT22;7843;50.330;7.312;2023-03-01T16:40:21;5.80;68.80
15483;DHT22;7843;50.330;7.312;2023-03-01T16:42:48;5.60;69.40
15483;DHT22;7843;50.330;7.312;2023-03-01T16:45:17;5.50;69.70
15483;DHT22;7843;50.330;7.312;2023-03-01T16:47:49;5.40;70.60
15483;DHT22;7843;50.330;7.312;2023-03-01T16:50:16;5.20;70.60
15483;DHT22;7843;50.330;7.312;2023-03-01T16:52:43;5.10;71.40
15483;DHT22;7843;50.330;7.312;2023-03-01T16:55:10;5.10;71.60
15483;DHT22;7843;50.330;7.312;2023-03-01T16:57:37;4.90;72.30
15483;DHT22;7843;50.330;7.312;2023-03-01T17:00:05;4.80;72.30
15483;DHT22;7843;50.330;7.312;2023-03-01T17:02:34;4.70;72.60
15483;DHT22;7843;50.330;7.312;2023-03-01T17:05:01;4.60;72.80
15483;DHT22;7843;50.330;7.312;2023-03-01T17:07:30;4.60;73.20
15483;DHT22;7843;50.330;7.312;2023-03-01T17:10:04;4.40;73.70
15483;DHT22;7843;50.330;7.312;2023-03-01T17:12:31;4.40;73.50
15483;DHT22;7843;50.330;7.312;2023-03-01T17:14:58;4.30;74.00
15483;DHT22;7843;50.330;7.312;2023-03-01T17:17:26;4.20;73.80
15483;DHT22;7843;50.330;7.312;2023-03-01T17:19:53;4.10;73.70
15483;DHT22;7843;50.330;7.312;2023-03-01T17:22:19;4.00;74.20
15483;DHT22;7843;50.330;7.312;2023-03-01T17:24:46;3.90;74.50
15483;DHT22;7843;50.330;7.312;2023-03-01T17:27:13;3.80;74.40
15483;DHT22;7843;50.330;7.312;2023-03-01T17:29:41;3.80;74.40
15483;DHT22;7843;50.330;7.312;2023-03-01T17:32:08;3.70;75.00
15483;DHT22;7843;50.330;7.312;2023-03-01T17:34:35;3.60;75.40
15483;DHT22;7843;50.330;7.312;2023-03-01T17:37:02;3.50;75.70
15483;DHT22;7843;50.330;7.312;2023-03-01T17:39:29;3.50;75.70
15483;DHT22;7843;50.330;7.312;2023-03-01T17:42:02;3.40;76.30
15483;DHT22;7843;50.330;7.312;2023-03-01T17:44:31;3.30;76.40
15483;DHT22;7843;50.330;7.312;2023-03-01T17:46:59;3.20;76.50
15483;DHT22;7843;50.330;7.312;2023-03-01T17:49:26;3.10;77.00
15483;DHT22;7843;50.330;7.312;2023-03-01T17:51:53;3.00;77.50
15483;DHT22;7843;50.330;7.312;2023-03-01T17:54:20;2.90;77.90
15483;DHT22;7843;50.330;7.312;2023-03-01T17:56:46;2.80;78.10
15483;DHT22;7843;50.330;7.312;2023-03-01T17:59:13;2.70;78.20
15483;DHT22;7843;50.330;7.312;2023-03-01T18:01:40;2.70;78.80
15483;DHT22;7843;50.330;7.312;2023-03-01T18:04:08;2.60;78.70
15483;DHT22;7843;50.330;7.312;2023-03-01T18:06:35;2.50;79.50
15483;DHT22;7843;50.330;7.312;2023-03-01T18:09:03;2.50;79.60
15483;DHT22;7843;50.330;7.312;2023-03-01T18:11:31;2.40;79.60